Pagina principale
METAR-TAF:

METAR-TAF

Aeroporti :

Aeroporto Internazionale Simón Bolívar

Caracas, Venezuela

latitudine: 10-36N, longitudine: 066-59W, altezza: 43 m

Osservazione

Il bollettino è stato emesso 23 minuti fa, alle 01:00 UTC
Vento 5 kt da est/sud-est
Temperature 28°C
Umidità 89%
Pressione 1012 hPa
Visibilità 10 km o più
Nubi sparse ad un'altezza di 1600 ft
Nuvoloso ad un'altezza di 8000 ft

METAR: SVMI 210100Z 11005KT 9999 SCT016 BKN080 28/26 Q1012

Ora: 21:23 (01:23 UTC)

Previsione

Previsione valida dal 20 alle 22 UTC al 21 alle 00 UTC
Vento 5 kt da est/sud-est
Visibilità 10 km o più
Nubi sparse ad un'altezza di 1600 ft
Nubi sparse ad un'altezza di 7000 ft
Evoluzione graduale
dal 21 alle 02 UTC al 21 alle 06 UTC
Vento 5 kt da est
Visibilità 10 km o più
Nubi sparse ad un'altezza di 7000 ft
Nuvoloso ad un'altezza di 1600 ft

TAF: SVMI 202200 2100/2200 11005KT 9999 SCT016 SCT070 TX31/2018Z TN27/2107Z BECMG 2102/2106 09005KT 9999 SCT070 BKN016

Osservazioni e previsioni meteorologiche di più di 4000 aeroporti (messaggi METAR e TAF).

Le stazioni disponibili sono rappresentate dai dischi gialli e rossi sulla carta.

Puntare il mouse per vedere il nome della stazione.

Clicca sopra per visualizzare le osservazioni e previsioni meteorologiche.

Per cambiare la mappa : fare clic sui pulsanti verdi con una croce nera per ingrandire, il pulsante verde con un trattino per diminuire, o sulla freccia verde per le mappe adiacenti.


METAR-TAF: